Ashley, MI

11:57 AM EST on November 28, 2014 (GMT -0500)
Owosso | Change Station
CLOSE
Current Station
Airport
Location: Owosso,
Elevation: 735 ft
Nearby Weather Stations

Elev 735 ft 42.99 °N, 84.14 °W | Updated 23 minutes ago

Overcast
Overcast
24 °F
Feels Like 14 °F
N
8
Wind Variable Wind from South

Today
High -- | Low -- °F
--% Chance of Precip.
Yesterday
High -- | Low -- °F
Precip. -- in
7:46 AM 5:05 PM
Waxing Crescent, 42% visible
Pressure 30.26 in
Visibility 10.0 miles
Clouds Overcast 3200 ft
Windchill 14 °F
Dew Point 12 °F
Humidity 62%
Rainfall 0.00 in
Snow Depth Not available.
UV 1 out of 12
Pollen .10 out of 12
Air Quality Not available.
Flu Activity Not available.
METAR KRNP 281634Z AUTO 18007KT 10SM OVC032 M05/M11 A3026 RMK AO2 T10471110

More Conditions Fewer Conditions

Pressure 30.26 in
Visibility 10.0 miles
Clouds Overcast 3200 ft
Windchill 14 °F
Dew Point 12 °F
Humidity 62%
Rainfall 0.00 in
Snow Depth Not available.
UV 1 out of 12
Pollen .10 out of 12
Air Quality Not available.
Flu Activity Not available.
METAR KRNP 281634Z AUTO 18007KT 10SM OVC032 M05/M11 A3026 RMK AO2 T10471110

More Conditions Fewer Conditions

10-Day Weather Forecast

Almanac

Astronomy

Nov. 28, 2014 Rise Set
Actual Time
Civil Twilight
Nautical Twilight
Astronomical Twilight
Moon
Length of Visible Light
Length of Day
Tomorrow will be .
, % of the Moon is Illuminated

Today's Extremes

State Highs State Lows

Community

WunderPhotos

Upload Photos

1,774,235 photos uploaded!

WunderBlogs® & News

Nearby

Air Quality

  Air Quality AQ Index Pollutant
Not available.

Snow Depth

Station Depth Elevation

Earthquake Activity

City Distance Mag. Time & Date
Minimum magnitude displayed is 2.5.

Coastal Water Temperatures

Place Temperature

Nearby Weather Stations